Time;durP1;ratioP1;P1;durP2;ratioP2;P2;SDS_P1;SDS_P2;PMS_P1;PMS_P2;Temp;Humidity;BMP_temperature;BMP_pressure;BME280_temperature;BME280_humidity;BME280_pressure;Samples;Min_cycle;Max_cycle;Signal;HPM_P1;HPM_P2
2023/07/20 04:09:59;;;;;;;7.80;4.35;;;;;;;21.26;97.45;99671.69;5561887;32;297287;-86
2023/07/20 04:13:04;;;;;;;6.82;4.07;;;;;;;21.24;96.53;99666.50;5557101;32;33425;-86
2023/07/20 04:16:07;;;;;;;6.85;3.78;;;;;;;21.28;96.07;99664.31;5559525;32;35156;-86
2023/07/20 04:19:10;;;;;;;5.78;3.90;;;;;;;21.27;95.82;99658.06;5548233;32;34604;-88
2023/07/20 04:22:15;;;;;;;6.65;4.32;;;;;;;21.41;95.27;99659.28;5545670;32;34706;-89
2023/07/20 04:25:18;;;;;;;7.28;3.90;;;;;;;21.41;94.79;99650.31;5547229;32;33404;-88
2023/07/20 04:28:21;;;;;;;7.07;3.83;;;;;;;21.77;92.08;99652.78;5546090;32;33856;-88
2023/07/20 04:31:25;;;;;;;8.23;3.97;;;;;;;21.93;90.92;99654.62;5545964;32;33353;-88
2023/07/20 04:34:27;;;;;;;6.55;3.75;;;;;;;22.13;90.22;99651.59;5545754;32;33723;-85
2023/07/20 04:37:30;;;;;;;8.73;3.90;;;;;;;22.19;88.38;99647.38;5545453;32;33623;-85
2023/07/20 04:40:34;;;;;;;5.50;3.60;;;;;;;22.38;87.47;99656.13;5545503;32;33464;-85
2023/07/20 04:43:41;;;;;;;8.60;4.20;;;;;;;22.29;87.41;99658.00;5545871;32;34161;-85
2023/07/20 04:46:44;;;;;;;8.32;4.60;;;;;;;22.41;86.54;99661.19;5545528;32;33842;-85
2023/07/20 04:49:49;;;;;;;6.82;4.07;;;;;;;22.39;85.75;99652.41;5544573;32;33670;-85
2023/07/20 04:52:53;;;;;;;9.30;4.47;;;;;;;22.38;83.57;99651.56;5545055;32;33797;-85
2023/07/20 04:55:56;;;;;;;10.43;4.30;;;;;;;22.52;81.98;99647.34;5545240;32;35020;-85
2023/07/20 04:58:59;;;;;;;5.05;4.00;;;;;;;22.58;82.50;99654.78;5544666;32;33701;-85
2023/07/20 05:02:02;;;;;;;13.32;4.55;;;;;;;22.79;79.38;99658.78;5544632;32;33435;-85
2023/07/20 05:05:05;;;;;;;10.45;4.30;;;;;;;22.93;78.82;99659.06;5545312;32;33535;-85
2023/07/20 05:08:09;;;;;;;6.55;3.80;;;;;;;23.24;77.30;99660.97;5545510;32;33591;-85
2023/07/20 05:11:12;;;;;;;7.18;4.40;;;;;;;23.42;76.42;99658.84;5546992;32;33888;-85
2023/07/20 05:14:15;;;;;;;8.07;4.35;;;;;;;23.27;74.58;99660.59;5546616;32;33852;-85
2023/07/20 05:17:18;;;;;;;9.60;4.45;;;;;;;23.25;74.22;99666.19;5546415;32;33815;-85
2023/07/20 05:20:21;;;;;;;7.85;3.92;;;;;;;23.32;74.36;99668.22;5532744;32;33802;-85
2023/07/20 05:23:24;;;;;;;6.22;4.12;;;;;;;23.38;74.72;99670.22;5512094;32;33812;-85
2023/07/20 05:26:27;;;;;;;6.35;4.07;;;;;;;23.66;72.05;99664.28;5513621;32;34567;-85
2023/07/20 05:29:29;;;;;;;14.20;4.05;;;;;;;23.72;71.36;99660.84;5513095;32;33895;-85
2023/07/20 05:32:33;;;;;;;6.55;4.30;;;;;;;24.02;69.03;99671.81;5512031;32;33714;-85
2023/07/20 05:35:37;;;;;;;7.78;4.70;;;;;;;23.96;67.84;99670.69;5512036;32;34081;-85
2023/07/20 05:38:40;;;;;;;7.05;4.15;;;;;;;24.60;64.71;99662.31;5512614;32;34070;-85
2023/07/20 05:41:42;;;;;;;5.93;4.43;;;;;;;25.82;60.02;99668.25;5511893;32;34829;-85
2023/07/20 05:44:49;;;;;;;8.57;4.18;;;;;;;26.07;58.65;99672.41;5512518;32;34322;-85
2023/07/20 05:47:52;;;;;;;7.10;4.30;;;;;;;27.39;52.66;99674.50;5512192;32;33844;-86
2023/07/20 05:50:56;;;;;;;5.22;4.40;;;;;;;27.12;53.37;99687.19;5512390;32;33783;-86
2023/07/20 05:53:58;;;;;;;7.30;4.40;;;;;;;27.81;50.35;99689.94;5511256;32;35030;-86
2023/07/20 05:57:01;;;;;;;6.25;3.92;;;;;;;28.06;49.65;99698.34;5510788;32;34747;-86
2023/07/20 06:00:05;;;;;;;7.07;4.18;;;;;;;26.89;52.60;99697.28;5510956;32;34605;-86
2023/07/20 06:03:13;;;;;;;5.05;4.32;;;;;;;26.16;54.55;99697.59;5510932;32;34757;-86
2023/07/20 06:06:16;;;;;;;7.70;4.12;;;;;;;26.79;52.51;99688.66;5510170;32;33585;-86
2023/07/20 06:09:19;;;;;;;5.70;4.25;;;;;;;27.22;51.01;99689.53;5511182;32;33787;-87
2023/07/20 06:12:21;;;;;;;7.80;4.18;;;;;;;28.08;48.90;99693.53;5510847;32;34110;-87
2023/07/20 06:15:32;;;;;;;7.50;4.40;;;;;;;27.13;51.32;99692.44;5519085;32;33643;-86
2023/07/20 06:18:35;;;;;;;5.65;4.32;;;;;;;26.77;52.50;99699.75;5538064;32;34448;-87
2023/07/20 06:21:38;;;;;;;9.40;4.12;;;;;;;26.99;52.99;99707.84;5549273;32;34666;-87
2023/07/20 06:24:41;;;;;;;7.78;4.37;;;;;;;28.92;47.76;99717.63;5549114;32;33541;-87
2023/07/20 06:27:48;;;;;;;8.82;4.50;;;;;;;30.17;44.83;99715.81;5549426;32;34587;-88
2023/07/20 06:30:51;;;;;;;8.85;4.35;;;;;;;28.28;48.73;99709.09;5549014;32;33622;-88
2023/07/20 06:33:54;;;;;;;5.30;4.30;;;;;;;28.45;49.44;99725.88;5549981;32;35397;-87
2023/07/20 06:36:57;;;;;;;11.73;4.80;;;;;;;27.65;50.58;99726.59;5550103;32;33584;-87
2023/07/20 06:40:00;;;;;;;14.65;4.55;;;;;;;27.62;50.62;99713.38;5549381;32;33935;-86
2023/07/20 06:43:06;;;;;;;9.38;4.70;;;;;;;27.54;50.94;99728.81;5549411;32;33816;-86
2023/07/20 06:46:11;;;;;;;10.27;4.82;;;;;;;26.61;53.69;99724.53;5549919;32;33730;-87
2023/07/20 06:49:25;;;;;;;8.07;4.60;;;;;;;26.30;54.94;99742.87;5549099;32;33813;-86
2023/07/20 06:52:28;;;;;;;7.30;5.03;;;;;;;26.30;55.44;99732.00;5549433;32;34579;-87
2023/07/20 06:55:31;;;;;;;9.18;4.97;;;;;;;25.83;57.05;99732.41;5550689;32;33547;-87
2023/07/20 06:58:43;;;;;;;7.90;4.43;;;;;;;26.11;56.95;99736.22;5551472;32;33757;-86
2023/07/20 07:01:46;;;;;;;11.40;4.68;;;;;;;26.57;55.11;99753.16;5550326;32;34931;-86
2023/07/20 07:04:49;;;;;;;9.30;4.22;;;;;;;26.88;52.90;99763.66;5555059;32;34501;-87
2023/07/20 07:08:01;;;;;;;11.23;4.62;;;;;;;27.26;51.57;99756.16;5553930;32;33905;-86
2023/07/20 07:11:05;;;;;;;8.60;4.55;;;;;;;26.67;51.40;99758.25;5549060;32;33731;-86
2023/07/20 07:14:08;;;;;;;8.40;4.50;;;;;;;26.59;52.60;99762.78;5549790;32;34282;-87
2023/07/20 07:17:11;;;;;;;5.68;3.92;;;;;;;26.75;51.48;99785.31;5561323;32;33955;-87
2023/07/20 07:20:14;;;;;;;9.57;4.80;;;;;;;26.95;52.30;99771.87;5563921;32;35190;-87
2023/07/20 07:23:22;;;;;;;10.30;4.97;;;;;;;27.36;50.15;99772.97;5553867;32;35000;-88
2023/07/20 07:26:26;;;;;;;9.10;4.85;;;;;;;27.53;48.70;99778.03;5549079;32;34467;-86
2023/07/20 07:29:29;;;;;;;6.87;4.10;;;;;;;27.15;49.23;99766.56;5549493;32;34361;-88
2023/07/20 07:32:32;;;;;;;10.30;4.43;;;;;;;27.78;48.40;99772.09;5548924;32;34720;-87
2023/07/20 07:35:34;;;;;;;11.15;4.37;;;;;;;28.29;48.32;99770.75;5549126;32;33481;-87
2023/07/20 07:38:38;;;;;;;7.55;4.30;;;;;;;28.21;46.71;99771.75;5548904;32;33387;-87
2023/07/20 07:42:00;;;;;;;10.98;4.80;;;;;;;28.61;45.77;99770.16;5541150;32;34140;-86
2023/07/20 07:45:04;;;;;;;5.78;4.03;;;;;;;28.73;45.88;99767.59;5545086;32;35003;-87
2023/07/20 07:48:07;;;;;;;4.85;3.80;;;;;;;28.48;43.49;99781.88;5541330;32;34573;-89
2023/07/20 07:51:10;;;;;;;9.40;3.87;;;;;;;28.56;42.25;99775.38;5524530;32;35128;-89
2023/07/20 07:54:12;;;;;;;12.32;3.90;;;;;;;28.51;41.95;99776.03;5525564;32;34141;-88
2023/07/20 07:57:15;;;;;;;7.22;3.90;;;;;;;28.16;43.71;99777.00;5525166;32;33439;-88
2023/07/20 08:00:18;;;;;;;6.18;3.97;;;;;;;28.77;42.16;99775.16;5585138;26;35240;-88
2023/07/20 08:03:23;;;;;;;7.55;4.07;;;;;;;29.37;41.29;99775.28;5537186;32;33860;-87
2023/07/20 08:06:26;;;;;;;5.43;3.72;;;;;;;29.11;40.66;99777.03;5518249;32;34088;-88
2023/07/20 08:09:29;;;;;;;6.43;3.72;;;;;;;29.35;39.59;99766.47;5522625;32;35212;-90
2023/07/20 08:12:32;;;;;;;9.57;3.70;;;;;;;29.33;40.82;99794.81;5522621;32;35772;-92
2023/07/20 08:15:34;;;;;;;5.07;3.75;;;;;;;29.38;39.28;99790.59;5534953;32;34288;-91
2023/07/20 08:18:37;;;;;;;8.88;3.40;;;;;;;30.00;37.53;99779.19;5529684;32;35115;-89
2023/07/20 08:21:40;;;;;;;3.67;3.37;;;;;;;30.08;38.36;99792.66;5520867;32;33332;-88
2023/07/20 08:24:44;;;;;;;8.80;3.47;;;;;;;30.28;36.46;99799.03;5527395;32;34385;-87
2023/07/20 08:42:47;;;;;;;12.18;3.62;;;;;;;31.40;35.53;99791.94;4095527;30;20083;-89
2023/07/20 08:45:53;;;;;;;6.57;3.50;;;;;;;31.15;35.99;99792.81;5568159;32;34373;-89
2023/07/20 08:48:57;;;;;;;7.50;3.53;;;;;;;31.18;35.16;99802.50;5568014;32;33827;-89
2023/07/20 08:52:27;;;;;;;4.20;3.20;;;;;;;29.93;37.86;99805.75;5579664;26;33004;-89
2023/07/20 08:55:31;;;;;;;7.37;3.45;;;;;;;29.34;37.52;99812.03;5594808;26;33871;-89
2023/07/20 09:02:17;;;;;;;8.43;3.40;;;;;;;28.89;38.33;99813.59;3831443;26;20107;-89
2023/07/20 09:05:24;;;;;;;4.40;3.35;;;;;;;29.15;37.44;99813.75;5588803;26;33879;-88
2023/07/20 09:08:29;;;;;;;8.73;3.22;;;;;;;28.92;37.21;99820.53;5578676;26;33648;-89
2023/07/20 09:11:32;;;;;;;7.78;3.58;;;;;;;28.15;38.83;99813.47;5532284;32;33961;-89
2023/07/20 09:14:37;;;;;;;8.95;3.15;;;;;;;27.77;39.85;99816.72;5546793;26;33738;-89
2023/07/20 09:17:46;;;;;;;9.10;3.90;;;;;;;27.64;40.45;99820.22;5533264;32;34569;-89
2023/07/20 09:20:49;;;;;;;7.80;3.40;;;;;;;28.75;39.85;99822.78;5564515;26;33832;-89
2023/07/20 09:23:56;;;;;;;7.15;3.50;;;;;;;28.41;39.83;99821.97;5579985;26;33621;-89
2023/07/20 09:27:04;;;;;;;7.25;3.10;;;;;;;28.83;40.06;99829.94;5551359;32;33949;-89
2023/07/20 09:30:13;;;;;;;4.97;3.50;;;;;;;30.16;37.87;99818.87;5563944;26;35215;-89
2023/07/20 09:33:44;;;;;;;5.60;3.70;;;;;;;31.07;36.31;99820.50;5342171;30;20116;-89
2023/07/20 09:36:51;;;;;;;9.02;3.80;;;;;;;31.95;35.91;99816.78;5515267;32;33667;-89
2023/07/20 09:39:56;;;;;;;7.40;3.15;;;;;;;32.91;32.22;99820.59;5522196;32;34242;-88
2023/07/20 09:43:03;;;;;;;8.77;3.28;;;;;;;31.66;35.00;99811.88;5521212;32;35097;-88
2023/07/20 09:46:09;;;;;;;6.80;3.45;;;;;;;31.25;35.39;99816.94;5539532;26;33770;-88
2023/07/20 09:49:39;;;;;;;5.32;3.20;;;;;;;30.70;35.34;99809.47;5536161;32;33491;-88
2023/07/20 09:52:46;;;;;;;6.78;3.10;;;;;;;30.11;35.26;99819.53;5533875;32;34075;-88
2023/07/20 09:55:53;;;;;;;7.68;3.37;;;;;;;32.57;32.36;99821.16;5534689;32;33524;-88
2023/07/20 09:58:57;;;;;;;8.45;2.95;;;;;;;31.32;33.49;99822.41;5542155;32;34013;-87
2023/07/20 10:02:04;;;;;;;7.30;3.40;;;;;;;32.49;32.69;99816.84;5543104;32;34068;-87
2023/07/20 10:05:10;;;;;;;7.40;3.53;;;;;;;31.80;34.22;99814.44;5531405;32;33952;-88
2023/07/20 10:08:16;;;;;;;7.32;3.10;;;;;;;31.81;34.35;99825.16;5535730;32;33952;-88
2023/07/20 10:11:28;;;;;;;6.40;3.15;;;;;;;32.78;32.58;99822.50;5531769;32;34542;-87
2023/07/20 10:14:35;;;;;;;5.50;3.05;;;;;;;33.03;31.87;99815.16;5531621;32;34713;-88
2023/07/20 10:17:49;;;;;;;9.48;3.22;;;;;;;32.96;31.95;99829.00;5531829;32;33487;-87
2023/07/20 10:20:54;;;;;;;7.10;3.55;;;;;;;32.55;32.59;99817.84;5532162;32;33680;-87
2023/07/20 10:24:01;;;;;;;7.78;3.42;;;;;;;33.15;32.61;99815.12;5533937;32;33771;-91
2023/07/20 10:27:06;;;;;;;4.53;3.30;;;;;;;32.27;33.19;99820.13;5533326;32;34123;-91
2023/07/20 10:30:09;;;;;;;4.68;2.97;;;;;;;32.98;33.13;99810.34;5532440;32;35221;-87
2023/07/20 10:33:12;;;;;;;6.95;3.08;;;;;;;32.55;32.20;99817.84;5533029;32;33925;-87
2023/07/20 10:36:15;;;;;;;5.25;3.20;;;;;;;32.42;32.99;99807.91;5534229;32;34419;-87
2023/07/20 10:39:30;;;;;;;9.52;3.20;;;;;;;31.48;33.25;99812.72;5532956;32;33565;-87
2023/07/20 10:42:34;;;;;;;13.02;3.20;;;;;;;31.44;33.41;99804.13;5543424;32;33916;-87
2023/07/20 10:45:51;;;;;;;5.35;2.65;;;;;;;31.44;34.08;99803.28;5545304;32;36094;-87
2023/07/20 10:49:04;;;;;;;8.25;2.80;;;;;;;29.75;34.48;99810.03;5530586;32;33697;-87
2023/07/20 10:52:10;;;;;;;4.80;2.83;;;;;;;29.15;35.40;99817.34;5530521;32;34851;-88
2023/07/20 10:55:17;;;;;;;12.68;3.40;;;;;;;28.91;35.17;99805.22;5533933;32;33835;-87
2023/07/20 10:58:26;;;;;;;7.55;2.72;;;;;;;28.22;36.95;99814.38;5531238;32;34796;-87
2023/07/20 11:01:30;;;;;;;6.67;2.90;;;;;;;28.41;37.63;99806.41;5531729;32;33850;-87
2023/07/20 11:04:42;;;;;;;9.65;2.95;;;;;;;28.67;36.73;99812.09;5533204;32;33992;-87
2023/07/20 11:07:46;;;;;;;5.22;2.85;;;;;;;28.85;36.99;99814.22;5535082;32;34239;-87
2023/07/20 11:11:25;;;;;;;3.80;2.70;;;;;;;28.86;37.29;99816.75;5532711;32;34528;-88
2023/07/20 11:14:28;;;;;;;2.97;2.72;;;;;;;28.90;36.67;99809.81;5532586;32;34588;-87
2023/07/20 11:17:32;;;;;;;7.72;3.45;;;;;;;29.44;36.50;99806.97;5533521;32;33635;-88
2023/07/20 11:20:36;;;;;;;3.50;2.85;;;;;;;29.69;36.72;99806.28;5534366;32;33942;-88
2023/07/20 11:23:39;;;;;;;5.35;2.92;;;;;;;29.72;36.76;99808.56;5532067;32;33779;-88
2023/07/20 11:26:48;;;;;;;6.68;3.20;;;;;;;30.66;36.31;99801.69;5518349;32;35231;-90
2023/07/20 11:30:02;;;;;;;5.57;2.72;;;;;;;30.65;35.66;99808.22;5531526;32;33840;-88
2023/07/20 11:37:00;;;;;;;6.15;2.90;;;;;;;31.85;32.67;99801.75;5048965;26;20423;-88
2023/07/20 11:47:29;;;;;;;7.90;2.50;;;;;;;31.52;32.38;99816.66;1868032;26;20096;-88
2023/07/20 11:50:40;;;;;;;8.85;2.70;;;;;;;31.70;32.55;99824.06;5587267;26;33704;-88
2023/07/20 11:58:06;;;;;;;5.93;2.55;;;;;;;31.30;33.04;99817.16;1873616;26;20099;-88
2023/07/20 12:01:11;;;;;;;7.18;2.80;;;;;;;31.89;31.73;99807.59;5542926;32;34492;-88
2023/07/20 12:04:14;;;;;;;4.93;2.85;;;;;;;30.84;33.48;99786.41;5550051;32;33945;-88
2023/07/20 12:14:53;;;;;;;5.43;2.80;;;;;;;31.56;32.53;99800.59;5569520;32;20080;-88
2023/07/20 12:17:59;;;;;;;4.47;2.75;;;;;;;31.22;33.22;99800.12;5571592;32;33735;-88
2023/07/20 12:21:02;;;;;;;3.25;2.65;;;;;;;31.17;32.84;99798.91;5571139;32;34605;-88
2023/07/20 12:24:05;;;;;;;7.25;3.10;;;;;;;30.96;33.37;99781.00;5570686;32;33498;-88
2023/07/20 12:30:51;;;;;;;5.62;2.80;;;;;;;31.20;32.27;99787.50;5398126;29;20126;-88
2023/07/20 12:33:57;;;;;;;6.97;2.58;;;;;;;31.10;33.13;99792.66;5571339;32;33962;-88
2023/07/20 12:37:03;;;;;;;17.12;2.87;;;;;;;31.24;30.78;99803.47;5569998;31;33796;-88
2023/07/20 12:40:10;;;;;;;6.43;2.55;;;;;;;30.31;30.79;99791.22;5613184;26;33775;-88
2023/07/20 12:43:13;;;;;;;4.47;2.50;;;;;;;30.37;31.74;99792.25;5572806;32;33715;-88
2023/07/20 12:46:16;;;;;;;4.70;2.33;;;;;;;30.35;32.53;99794.34;5587769;26;33496;-87
2023/07/20 12:49:19;;;;;;;6.80;2.55;;;;;;;30.03;31.18;99786.97;5569883;32;33954;-87
2023/07/20 12:52:22;;;;;;;2.37;2.17;;;;;;;29.50;30.86;99790.81;5570594;32;33870;-87
2023/07/20 12:55:24;;;;;;;6.70;2.62;;;;;;;29.98;31.08;99781.31;5571225;32;34623;-87
2023/07/20 12:58:27;;;;;;;6.30;2.45;;;;;;;29.76;31.44;99778.91;5570947;32;34144;-87
2023/07/20 13:01:30;;;;;;;7.45;2.72;;;;;;;29.99;32.95;99791.19;5577447;32;34495;-88
2023/07/20 13:04:33;;;;;;;6.70;2.72;;;;;;;29.97;31.78;99776.91;5583248;31;34990;-87
2023/07/20 13:07:37;;;;;;;4.35;2.50;;;;;;;29.59;31.94;99773.09;5571520;32;34612;-87
2023/07/20 13:10:43;;;;;;;8.57;2.97;;;;;;;29.94;31.92;99774.59;5571479;32;33714;-87
2023/07/20 13:13:46;;;;;;;5.40;2.53;;;;;;;30.27;32.41;99776.34;5571746;32;33896;-88
2023/07/20 13:16:49;;;;;;;7.82;2.72;;;;;;;30.76;31.21;99784.78;5570777;32;33928;-88
2023/07/20 13:19:51;;;;;;;11.63;2.83;;;;;;;29.88;31.78;99787.28;5571263;32;33427;-88
2023/07/20 13:22:54;;;;;;;4.60;2.70;;;;;;;30.02;31.36;99785.31;5571312;32;33824;-88
2023/07/20 13:25:57;;;;;;;4.32;2.72;;;;;;;29.85;31.95;99776.75;5571533;32;33596;-88
2023/07/20 13:29:00;;;;;;;8.65;2.40;;;;;;;29.71;32.49;99774.09;5570633;32;33904;-88
2023/07/20 13:32:05;;;;;;;7.95;2.90;;;;;;;30.27;31.93;99765.37;5570455;32;33989;-88
2023/07/20 13:35:08;;;;;;;2.80;2.53;;;;;;;30.27;31.51;99765.37;5570669;32;33617;-87
2023/07/20 13:38:11;;;;;;;3.75;2.35;;;;;;;29.66;32.20;99773.91;5570186;32;33813;-87
2023/07/20 13:41:16;;;;;;;5.37;2.70;;;;;;;30.12;31.21;99777.47;5571309;32;35269;-90
2023/07/20 13:44:21;;;;;;;6.30;2.53;;;;;;;30.08;31.28;99789.91;5571078;32;34055;-91
2023/07/20 13:47:26;;;;;;;8.45;2.28;;;;;;;30.03;31.73;99773.31;5570873;32;33971;-89
2023/07/20 13:50:32;;;;;;;6.90;2.53;;;;;;;29.99;32.07;99772.06;5570609;32;34539;-88
2023/07/20 13:53:38;;;;;;;7.25;2.50;;;;;;;30.17;32.40;99768.59;5562527;31;34339;-89
2023/07/20 13:56:43;;;;;;;5.37;2.40;;;;;;;29.94;31.77;99759.06;5570454;32;33452;-88
2023/07/20 13:59:46;;;;;;;10.20;2.50;;;;;;;29.93;32.18;99756.53;5572813;32;34450;-88
2023/07/20 14:02:49;;;;;;;3.90;2.78;;;;;;;30.16;31.52;99769.66;5570837;32;33533;-88
2023/07/20 14:05:54;;;;;;;6.35;2.80;;;;;;;29.96;31.92;99761.56;5571385;32;33924;-89
2023/07/20 14:09:00;;;;;;;3.03;2.70;;;;;;;29.51;32.57;99776.91;5571376;32;33791;-88
2023/07/20 14:12:03;;;;;;;3.90;2.50;;;;;;;29.31;32.54;99766.06;5577614;32;34286;-89
2023/07/20 14:15:10;;;;;;;6.12;2.47;;;;;;;29.11;32.79;99771.56;5584539;32;33956;-86
2023/07/20 14:18:12;;;;;;;4.60;2.33;;;;;;;29.28;33.36;99761.88;5575125;32;35169;-87
2023/07/20 14:21:16;;;;;;;9.38;2.75;;;;;;;29.54;33.63;99762.84;5569463;32;34498;-87
2023/07/20 14:24:19;;;;;;;5.00;2.53;;;;;;;29.77;32.62;99763.34;5569861;32;34037;-87
2023/07/20 14:27:22;;;;;;;2.83;2.35;;;;;;;29.55;32.79;99766.38;5569461;32;33914;-87
2023/07/20 14:30:25;;;;;;;4.85;2.28;;;;;;;29.69;32.81;99756.25;5570564;32;34602;-86
2023/07/20 14:33:28;;;;;;;6.95;2.20;;;;;;;29.35;34.00;99761.81;5569293;32;33842;-86
2023/07/20 14:36:31;;;;;;;4.30;2.40;;;;;;;29.68;33.18;99760.88;5568848;32;33647;-87
2023/07/20 14:39:36;;;;;;;2.47;2.28;;;;;;;29.81;32.52;99779.09;5569604;32;33696;-87
2023/07/20 14:42:39;;;;;;;3.62;2.42;;;;;;;29.70;32.46;99777.91;5569433;32;33707;-87
2023/07/20 14:45:42;;;;;;;4.95;2.42;;;;;;;29.68;32.77;99762.78;5574938;32;33502;-87
2023/07/20 14:48:45;;;;;;;4.53;2.50;;;;;;;29.67;33.22;99770.13;5575371;32;33720;-87
2023/07/20 14:51:49;;;;;;;3.47;2.35;;;;;;;29.88;32.70;99775.47;5575935;32;34901;-86
2023/07/20 14:54:52;;;;;;;4.85;2.50;;;;;;;29.34;33.44;99765.63;5575312;32;34269;-86
2023/07/20 14:57:55;;;;;;;2.92;2.50;;;;;;;29.00;33.93;99762.13;5569097;32;33786;-87
2023/07/20 15:00:58;;;;;;;3.50;2.42;;;;;;;29.19;33.85;99764.00;5568463;32;33846;-86
2023/07/20 15:04:00;;;;;;;4.47;2.60;;;;;;;29.36;32.72;99759.94;5568848;32;33998;-87
2023/07/20 15:07:04;;;;;;;3.83;2.45;;;;;;;29.21;33.14;99766.47;5566472;32;33703;-87
2023/07/20 15:10:07;;;;;;;4.10;2.50;;;;;;;28.82;33.91;99763.63;5551405;32;33949;-87
2023/07/20 15:13:10;;;;;;;3.30;2.35;;;;;;;28.74;34.36;99767.41;5551978;32;33531;-87
2023/07/20 15:16:12;;;;;;;4.82;2.40;;;;;;;29.18;33.11;99766.94;5552078;32;33778;-87
2023/07/20 15:19:16;;;;;;;4.50;2.28;;;;;;;29.01;33.72;99770.09;5550688;32;33454;-87
2023/07/20 15:22:19;;;;;;;6.28;2.62;;;;;;;29.15;33.75;99753.69;5549465;32;33742;-87
2023/07/20 15:25:23;;;;;;;2.47;2.28;;;;;;;29.09;33.90;99751.81;5549480;32;33700;-87
